Time;durP1;ratioP1;P1;durP2;ratioP2;P2;SDS_P1;SDS_P2;PMS_P1;PMS_P2;Temp;Humidity;BMP_temperature;BMP_pressure;BME280_temperature;BME280_humidity;BME280_pressure;Samples;Min_cycle;Max_cycle;Signal;HPM_P1;HPM_P2
2022/01/06 00:01:21;;;;;;;19.25;9.48;;;;;;;-0.49;78.25;96853.59;5070928;28;20044;-55
2022/01/06 00:03:46;;;;;;;18.48;9.10;;;;;;;-0.41;77.88;96851.66;5071000;28;20056;-56
2022/01/06 00:06:13;;;;;;;18.98;9.00;;;;;;;-0.43;77.73;96851.09;5070500;28;20044;-55
2022/01/06 00:08:39;;;;;;;21.85;9.55;;;;;;;-0.50;77.73;96859.81;5071884;28;20040;-55
2022/01/06 00:11:08;;;;;;;19.00;9.45;;;;;;;-0.55;78.24;96864.91;5070653;28;20545;-56
2022/01/06 00:13:59;;;;;;;18.52;8.60;;;;;;;-0.52;78.62;96859.25;5071194;28;20102;-57
2022/01/06 00:24:18;;;;;;;18.95;8.98;;;;;;;-0.34;77.52;96870.56;5091060;28;20192;-56
2022/01/06 00:26:45;;;;;;;18.15;8.30;;;;;;;-0.33;78.25;96875.50;5070831;28;20587;-57
2022/01/06 00:29:11;;;;;;;16.85;8.48;;;;;;;-0.34;78.31;96873.16;5083707;28;20506;-59
2022/01/06 00:31:37;;;;;;;19.48;9.25;;;;;;;-0.31;78.69;96876.09;5089446;28;20166;-55
2022/01/06 00:34:05;;;;;;;18.63;8.32;;;;;;;-0.24;78.43;96878.56;5089374;28;20135;-57
2022/01/06 00:36:31;;;;;;;17.67;7.88;;;;;;;-0.19;77.93;96877.88;5088296;28;20070;-56
2022/01/06 00:38:57;;;;;;;16.90;7.85;;;;;;;-0.24;77.98;96874.16;5091011;28;20490;-58
2022/01/06 00:41:23;;;;;;;17.35;8.40;;;;;;;-0.18;78.32;96882.84;5074082;28;20079;-57
2022/01/06 00:43:49;;;;;;;15.48;7.82;;;;;;;-0.15;78.20;96869.38;5070721;28;20413;-58
2022/01/06 00:46:15;;;;;;;17.77;8.07;;;;;;;-0.12;78.22;96878.53;5070059;28;20040;-58
2022/01/06 00:48:41;;;;;;;15.27;7.90;;;;;;;-0.19;78.05;96870.06;5069268;28;20051;-58
2022/01/06 00:51:09;;;;;;;16.27;7.65;;;;;;;-0.17;78.33;96871.44;5091171;28;20039;-59
2022/01/06 00:53:35;;;;;;;14.63;6.93;;;;;;;-0.14;78.74;96872.78;5073180;28;20045;-57
2022/01/06 00:56:01;;;;;;;13.65;7.18;;;;;;;-0.13;78.62;96876.97;5068918;28;20044;-56
2022/01/06 00:58:27;;;;;;;16.20;7.28;;;;;;;-0.13;78.94;96869.94;5072380;28;20048;-58
2022/01/06 01:00:52;;;;;;;12.57;7.20;;;;;;;-0.09;79.14;96880.66;5075622;28;20131;-55
2022/01/06 01:03:20;;;;;;;14.05;7.20;;;;;;;-0.06;79.02;96878.41;5095513;28;20051;-57
2022/01/06 01:05:49;;;;;;;16.42;7.47;;;;;;;-0.09;78.75;96870.25;5074054;28;20066;-59
2022/01/06 01:08:15;;;;;;;14.95;7.43;;;;;;;-0.05;79.33;96874.00;5074367;28;20482;-57
2022/01/06 01:10:42;;;;;;;15.23;7.57;;;;;;;-0.09;79.29;96880.66;5072881;28;20066;-57
2022/01/06 01:13:12;;;;;;;13.10;6.60;;;;;;;-0.01;79.49;96882.91;5072914;28;20123;-57
2022/01/06 01:15:46;;;;;;;11.63;6.13;;;;;;;-0.11;79.01;96875.72;5075321;28;20051;-58
2022/01/06 01:18:13;;;;;;;12.43;7.13;;;;;;;0.03;79.27;96885.84;5094471;28;20097;-56
2022/01/06 01:20:39;;;;;;;12.43;6.15;;;;;;;-0.01;79.10;96890.72;5093048;28;20085;-55
2022/01/06 01:23:05;;;;;;;12.90;7.47;;;;;;;0.06;79.58;96890.59;5082658;28;20048;-54
2022/01/06 01:25:31;;;;;;;10.20;5.30;;;;;;;0.03;79.51;96891.88;5073603;28;20045;-53
2022/01/06 01:27:57;;;;;;;14.07;6.40;;;;;;;0.07;79.30;96884.38;5055760;28;20420;-56
2022/01/06 01:30:30;;;;;;;10.18;5.72;;;;;;;0.12;79.14;96892.28;5074233;28;20165;-55
2022/01/06 01:32:57;;;;;;;11.68;6.03;;;;;;;0.10;79.20;96884.72;5073862;28;20518;-58
2022/01/06 01:35:24;;;;;;;11.05;5.50;;;;;;;0.18;79.66;96883.56;5085388;28;20098;-57
2022/01/06 01:37:50;;;;;;;10.82;5.32;;;;;;;0.19;78.63;96890.34;5083745;28;20045;-58
2022/01/06 01:40:18;;;;;;;10.45;5.68;;;;;;;0.20;78.97;96884.09;5073383;28;20044;-57
2022/01/06 01:42:44;;;;;;;12.75;6.00;;;;;;;0.19;79.01;96870.28;5074649;28;20479;-57
2022/01/06 01:45:10;;;;;;;10.27;5.55;;;;;;;0.21;78.72;96888.31;5073156;28;20049;-58
2022/01/06 01:47:45;;;;;;;12.05;5.75;;;;;;;0.12;79.27;96877.47;5073390;28;20051;-57
2022/01/06 01:50:16;;;;;;;6.85;4.53;;;;;;;0.20;79.04;96890.09;5082357;28;20536;-56
2022/01/06 01:52:48;;;;;;;13.15;5.63;;;;;;;0.23;79.62;96894.84;5087347;28;20044;-55
2022/01/06 01:55:17;;;;;;;10.18;5.43;;;;;;;0.17;79.07;96877.53;5073296;28;20051;-55
2022/01/06 01:57:43;;;;;;;9.38;5.63;;;;;;;0.33;79.23;96890.88;5074141;28;20056;-57
2022/01/06 02:00:12;;;;;;;9.52;4.57;;;;;;;0.33;78.55;96883.06;5088738;28;20040;-57
2022/01/06 02:02:41;;;;;;;11.98;6.18;;;;;;;0.35;78.70;96889.59;5078360;28;20044;-56
2022/01/06 02:05:07;;;;;;;13.13;5.78;;;;;;;0.39;78.86;96888.13;5080357;28;20040;-55
2022/01/06 02:07:34;;;;;;;10.82;5.47;;;;;;;0.38;78.89;96886.53;5088585;28;20048;-57
2022/01/06 02:10:02;;;;;;;10.15;5.22;;;;;;;0.40;78.86;96892.28;5073936;28;20086;-57
2022/01/06 02:12:32;;;;;;;8.73;4.90;;;;;;;0.40;79.19;96887.09;5073056;28;20047;-56
2022/01/06 02:14:58;;;;;;;8.95;5.53;;;;;;;0.44;78.83;96898.63;5085856;28;20040;-56
2022/01/06 02:17:24;;;;;;;10.18;5.05;;;;;;;0.42;78.40;96887.66;5080980;28;20166;-55
2022/01/06 02:19:54;;;;;;;8.82;4.60;;;;;;;0.38;78.53;96896.97;5076213;28;20122;-59
2022/01/06 02:22:21;;;;;;;8.70;4.97;;;;;;;0.38;78.81;96898.75;5091742;28;20047;-58
2022/01/06 02:24:46;;;;;;;8.63;5.28;;;;;;;0.41;78.82;96896.50;5073401;28;20090;-56
2022/01/06 02:27:12;;;;;;;10.35;5.20;;;;;;;0.43;79.44;96898.88;5072234;28;20048;-59
2022/01/06 02:29:39;;;;;;;9.90;4.85;;;;;;;0.49;78.26;96899.75;5081452;28;20044;-58
2022/01/06 02:32:10;;;;;;;10.48;4.60;;;;;;;0.46;78.76;96903.59;5080421;28;20047;-57
2022/01/06 02:34:35;;;;;;;9.85;5.22;;;;;;;0.47;79.45;96899.19;5072272;28;20063;-57
2022/01/06 02:37:03;;;;;;;8.52;4.53;;;;;;;0.52;78.52;96899.28;5071986;28;20056;-56
2022/01/06 02:39:29;;;;;;;8.50;4.20;;;;;;;0.53;78.54;96904.28;5055026;28;20041;-56
2022/01/06 02:41:55;;;;;;;8.93;4.57;;;;;;;0.53;78.01;96899.06;5072437;28;20047;-57
2022/01/06 02:44:25;;;;;;;9.43;5.00;;;;;;;0.52;77.50;96896.66;5085263;28;20044;-57
2022/01/06 02:46:52;;;;;;;12.70;5.25;;;;;;;0.55;77.95;96911.84;5090966;28;20078;-57
2022/01/06 02:49:18;;;;;;;10.57;4.93;;;;;;;0.55;77.88;96915.22;5084538;28;20150;-56
2022/01/06 02:51:44;;;;;;;11.80;5.55;;;;;;;0.55;77.82;96910.03;5072279;28;20159;-57
2022/01/06 02:54:10;;;;;;;10.52;4.45;;;;;;;0.54;78.01;96921.47;5092723;28;20043;-56
2022/01/06 02:56:38;;;;;;;8.35;4.38;;;;;;;0.50;77.98;96917.78;5075309;28;20098;-55
2022/01/06 02:59:04;;;;;;;9.93;4.10;;;;;;;0.49;77.86;96925.81;5071671;28;20040;-57
2022/01/06 03:01:30;;;;;;;10.75;4.82;;;;;;;0.52;78.38;96923.53;5071546;28;20462;-56
2022/01/06 03:03:56;;;;;;;7.00;4.20;;;;;;;0.49;78.34;96931.03;5071658;28;20076;-57
2022/01/06 03:06:22;;;;;;;9.35;4.60;;;;;;;0.53;78.10;96922.53;5072475;28;20044;-57
2022/01/06 03:08:47;;;;;;;8.93;4.13;;;;;;;0.51;79.00;96931.59;5072208;28;20486;-57
2022/01/06 03:11:14;;;;;;;6.65;4.13;;;;;;;0.47;77.70;96931.25;5070372;28;20109;-58
2022/01/06 03:13:40;;;;;;;7.50;4.00;;;;;;;0.52;78.11;96935.78;5078698;28;20503;-56
2022/01/06 03:16:05;;;;;;;6.13;3.55;;;;;;;0.48;76.79;96930.25;5088810;28;20033;-55
2022/01/06 03:18:31;;;;;;;6.78;3.83;;;;;;;0.56;76.47;96942.91;5072702;28;20098;-56
2022/01/06 03:20:57;;;;;;;11.02;4.07;;;;;;;0.60;76.24;96933.59;5070863;28;20044;-58
2022/01/06 03:23:23;;;;;;;8.98;3.83;;;;;;;0.60;76.04;96932.78;5071823;28;20040;-57
2022/01/06 03:25:48;;;;;;;8.40;3.30;;;;;;;0.57;77.07;96930.66;5070996;28;20044;-58
2022/01/06 03:28:14;;;;;;;6.20;3.22;;;;;;;0.64;76.15;96926.09;5072076;28;20040;-57
2022/01/06 03:30:40;;;;;;;7.93;3.13;;;;;;;0.61;75.72;96921.34;5092411;28;20032;-56
2022/01/06 03:33:06;;;;;;;8.63;3.15;;;;;;;0.64;76.76;96918.25;5088848;28;20047;-57
2022/01/06 03:35:31;;;;;;;6.80;3.42;;;;;;;0.64;76.16;96924.25;5090267;28;20052;-57
2022/01/06 03:37:57;;;;;;;6.10;3.00;;;;;;;0.64;74.91;96923.47;5083047;28;20045;-56
2022/01/06 03:40:23;;;;;;;11.80;3.50;;;;;;;0.63;74.88;96925.28;5072271;28;21199;-57
2022/01/06 03:42:49;;;;;;;7.97;3.40;;;;;;;0.62;75.69;96920.34;5091240;28;20094;-58
2022/01/06 03:45:17;;;;;;;7.75;3.47;;;;;;;0.61;75.76;96927.34;5089808;28;20131;-57
2022/01/06 03:47:43;;;;;;;10.48;3.80;;;;;;;0.59;75.47;96913.75;5071765;28;20085;-56
2022/01/06 03:50:11;;;;;;;9.20;4.20;;;;;;;0.62;74.88;96910.69;5080300;28;20047;-54
2022/01/06 03:52:37;;;;;;;8.50;3.90;;;;;;;0.61;75.49;96924.72;5069536;28;20043;-55
2022/01/06 03:55:05;;;;;;;6.75;3.22;;;;;;;0.60;74.72;96919.75;5072037;28;20048;-58
2022/01/06 03:57:30;;;;;;;6.90;3.78;;;;;;;0.53;76.08;96932.94;5088198;28;20131;-56
2022/01/06 03:59:56;;;;;;;5.50;2.28;;;;;;;0.57;74.87;96931.44;5057561;28;20131;-58
2022/01/06 04:02:22;;;;;;;11.57;2.50;;;;;;;0.62;75.16;96931.53;5070729;28;20069;-56
2022/01/06 04:04:48;;;;;;;6.25;2.95;;;;;;;0.59;75.66;96934.63;5070925;28;20048;-58
2022/01/06 04:07:14;;;;;;;7.80;2.67;;;;;;;0.61;75.33;96945.59;5070881;28;20057;-58
2022/01/06 04:09:39;;;;;;;4.82;2.90;;;;;;;0.59;75.85;96946.84;5070926;28;20043;-56
2022/01/06 04:12:09;;;;;;;4.78;2.08;;;;;;;0.63;75.92;96948.75;5069475;28;20040;-57
2022/01/06 04:14:35;;;;;;;4.45;2.55;;;;;;;0.63;75.74;96945.38;5070633;28;20541;-58
2022/01/06 04:17:01;;;;;;;7.53;2.60;;;;;;;0.59;76.17;96946.84;5074465;28;20044;-58
2022/01/06 04:19:27;;;;;;;4.18;2.40;;;;;;;0.57;76.92;96951.50;5089179;28;20036;-58
2022/01/06 04:21:53;;;;;;;4.18;2.45;;;;;;;0.54;75.87;96942.34;5069948;28;20055;-55
2022/01/06 04:24:20;;;;;;;5.20;2.80;;;;;;;0.61;76.72;96942.19;5069375;28;20067;-57
2022/01/06 04:26:45;;;;;;;4.93;2.35;;;;;;;0.62;75.96;96946.41;5070078;28;20047;-56
2022/01/06 04:29:11;;;;;;;7.80;2.50;;;;;;;0.61;75.52;96948.19;5076268;28;20040;-58
2022/01/06 04:31:38;;;;;;;5.13;2.50;;;;;;;0.66;76.59;96942.28;5089060;28;20071;-57
2022/01/06 04:34:04;;;;;;;6.28;2.53;;;;;;;0.66;77.45;96943.06;5091319;28;20051;-58
2022/01/06 04:36:29;;;;;;;4.50;2.50;;;;;;;0.70;74.86;96937.41;5073058;28;20093;-54
2022/01/06 04:38:55;;;;;;;5.55;2.55;;;;;;;0.68;75.38;96946.25;5068962;28;20102;-59
2022/01/06 04:41:21;;;;;;;5.80;2.67;;;;;;;0.67;75.98;96954.28;5052562;28;20215;-57
2022/01/06 04:43:47;;;;;;;5.57;2.70;;;;;;;0.66;75.87;96945.69;5052010;28;20510;-57
2022/01/06 04:46:13;;;;;;;5.13;2.80;;;;;;;0.71;75.57;96952.00;5070979;28;20044;-58
2022/01/06 04:48:39;;;;;;;8.10;2.60;;;;;;;0.74;76.56;96948.97;5070487;28;20052;-55
2022/01/06 04:51:07;;;;;;;6.28;3.38;;;;;;;0.75;76.58;96940.09;5070221;28;20437;-57
2022/01/06 04:53:34;;;;;;;4.82;2.55;;;;;;;0.79;76.36;96947.19;5070498;28;20482;-55
2022/01/06 04:56:00;;;;;;;28.45;5.22;;;;;;;0.75;75.93;96940.09;5052236;28;20357;-56
2022/01/06 04:58:27;;;;;;;4.13;2.30;;;;;;;0.70;76.33;96947.81;5071262;28;20045;-56
2022/01/06 05:00:53;;;;;;;4.85;2.97;;;;;;;0.66;77.31;96950.13;5070442;28;20136;-54
2022/01/06 05:03:19;;;;;;;6.22;2.72;;;;;;;0.66;77.09;96950.91;5076610;28;20446;-57
2022/01/06 05:05:45;;;;;;;9.45;3.50;;;;;;;0.63;76.93;96955.78;5068969;28;20032;-57
2022/01/06 05:08:11;;;;;;;5.32;2.75;;;;;;;0.64;76.80;96954.75;5073069;28;20489;-57
2022/01/06 05:10:36;;;;;;;5.78;2.63;;;;;;;0.72;76.67;96958.81;5091329;28;20082;-58
2022/01/06 05:13:03;;;;;;;6.43;2.97;;;;;;;0.64;75.78;96957.38;5070869;28;20052;-57
2022/01/06 05:15:28;;;;;;;4.93;3.08;;;;;;;0.69;77.50;96962.69;5068452;28;20123;-56
2022/01/06 05:17:54;;;;;;;3.47;2.45;;;;;;;0.59;76.10;96967.69;5078715;28;20135;-56
2022/01/06 05:20:25;;;;;;;4.75;2.63;;;;;;;0.61;76.38;96966.44;5070689;28;20046;-58
2022/01/06 05:22:54;;;;;;;;;;;;;;;0.63;76.62;96961.78;5089667;28;20052;-58
2022/01/06 05:25:24;;;;;;;3.95;2.40;;;;;;;0.65;76.70;96961.56;5072404;28;20312;-57
2022/01/06 05:27:50;;;;;;;;;;;;;;;0.66;77.01;96963.16;5073340;28;20055;-57
2022/01/06 05:30:15;;;;;;;5.53;2.35;;;;;;;0.67;77.21;96962.91;5069513;28;19920;-56
2022/01/06 05:32:42;;;;;;;9.63;2.97;;;;;;;0.65;76.25;96961.56;5074310;28;20041;-56
2022/01/06 05:35:09;;;;;;;4.80;2.42;;;;;;;0.62;76.03;96962.81;5087630;28;20063;-56
2022/01/06 05:37:35;;;;;;;5.05;2.58;;;;;;;0.65;76.51;96964.97;5070814;28;20052;-57
2022/01/06 05:40:01;;;;;;;4.40;2.72;;;;;;;0.66;76.32;96963.94;5051628;28;20451;-57
2022/01/06 05:42:29;;;;;;;3.40;2.15;;;;;;;0.60;75.82;96961.47;5069887;28;20097;-56
2022/01/06 05:44:54;;;;;;;5.63;2.92;;;;;;;0.70;77.06;96958.25;5078697;28;20451;-56
2022/01/06 05:47:20;;;;;;;5.30;2.50;;;;;;;0.65;76.37;96954.53;5092038;28;20036;-56
2022/01/06 05:49:46;;;;;;;6.03;2.85;;;;;;;0.60;77.18;96954.44;5094503;28;20425;-56
2022/01/06 05:52:12;;;;;;;6.63;2.60;;;;;;;0.58;77.20;96955.69;5075097;28;20093;-57
2022/01/06 05:54:39;;;;;;;4.72;2.30;;;;;;;0.60;76.51;96951.84;5085065;28;20044;-59
2022/01/06 05:57:08;;;;;;;4.57;2.30;;;;;;;0.63;76.57;96955.78;5083455;28;20070;-56
2022/01/06 05:59:34;;;;;;;6.40;2.70;;;;;;;0.73;77.15;96949.97;5072681;28;20426;-54
2022/01/06 06:02:00;;;;;;;8.02;3.63;;;;;;;0.75;75.96;96953.91;5073624;28;20051;-57
2022/01/06 06:04:26;;;;;;;4.28;2.53;;;;;;;0.77;75.87;96951.09;5072866;28;20532;-57
2022/01/06 06:06:52;;;;;;;4.95;2.85;;;;;;;0.77;75.67;96953.72;5086401;28;20052;-56
2022/01/06 06:09:18;;;;;;;6.30;2.95;;;;;;;0.70;75.52;96948.59;5090845;28;20043;-57
2022/01/06 06:11:44;;;;;;;10.65;2.90;;;;;;;0.66;75.42;96953.50;5088424;28;20036;-58
2022/01/06 06:14:10;;;;;;;7.20;2.80;;;;;;;0.70;75.95;96956.44;5073858;28;20094;-57
2022/01/06 06:16:35;;;;;;;4.82;2.83;;;;;;;0.81;76.90;96953.00;5091571;28;20412;-57
2022/01/06 06:19:01;;;;;;;3.88;2.38;;;;;;;0.92;76.45;96950.56;5091725;28;20040;-58
2022/01/06 06:21:27;;;;;;;5.15;2.95;;;;;;;0.98;76.19;96955.63;5082417;28;20046;-56
2022/01/06 06:23:53;;;;;;;3.85;2.67;;;;;;;0.90;75.42;96950.78;5072804;28;20430;-58
2022/01/06 06:26:19;;;;;;;6.70;3.00;;;;;;;0.90;75.46;96953.41;5073283;28;20408;-56
2022/01/06 06:28:45;;;;;;;7.07;2.88;;;;;;;0.87;76.05;96946.03;5072928;28;20051;-56
2022/01/06 06:31:11;;;;;;;5.13;2.90;;;;;;;0.93;76.80;96950.31;5085511;28;20040;-55
2022/01/06 06:33:36;;;;;;;6.20;3.33;;;;;;;0.92;76.31;96953.97;5080855;28;20486;-57
2022/01/06 06:36:03;;;;;;;12.77;3.20;;;;;;;0.97;76.20;96945.41;5072237;28;20056;-57
2022/01/06 06:38:29;;;;;;;4.90;2.92;;;;;;;0.99;75.43;96943.38;5073404;28;20056;-58
2022/01/06 06:40:54;;;;;;;7.30;3.20;;;;;;;1.03;75.13;96942.69;5092168;28;20130;-57
2022/01/06 06:43:20;;;;;;;7.53;3.30;;;;;;;0.99;75.83;96938.94;5076449;28;20140;-57
2022/01/06 06:45:46;;;;;;;5.28;3.40;;;;;;;0.99;75.69;96933.72;5070606;28;20048;-57
2022/01/06 06:48:13;;;;;;;6.07;3.35;;;;;;;0.95;76.41;96930.03;5071524;28;20048;-60
2022/01/06 06:50:39;;;;;;;5.63;3.78;;;;;;;0.92;76.59;96932.31;5072178;28;20131;-59
2022/01/06 06:53:05;;;;;;;10.18;4.40;;;;;;;0.93;75.87;96944.31;5073344;28;20189;-58
2022/01/06 06:55:31;;;;;;;7.85;4.15;;;;;;;0.92;76.45;96940.91;5086953;28;20040;-57
2022/01/06 06:57:57;;;;;;;11.18;2.85;;;;;;;0.88;76.53;96939.78;5079135;28;20127;-60
2022/01/06 07:00:23;;;;;;;5.20;3.03;;;;;;;0.94;75.79;96943.28;5070717;28;20039;-59
2022/01/06 07:02:49;;;;;;;6.25;3.08;;;;;;;0.97;76.21;96935.81;5070625;28;20405;-57
2022/01/06 07:05:15;;;;;;;5.75;3.45;;;;;;;0.98;75.77;96932.16;5052355;28;20466;-60
2022/01/06 07:07:42;;;;;;;6.28;3.42;;;;;;;1.13;76.00;96942.03;5068865;28;20139;-60
2022/01/06 07:10:08;;;;;;;6.13;3.08;;;;;;;1.20;75.66;96941.88;5070269;28;20071;-58
2022/01/06 07:12:42;;;;;;;5.43;3.50;;;;;;;1.13;75.73;96937.63;5071768;28;20064;-57
2022/01/06 07:15:09;;;;;;;5.28;3.53;;;;;;;1.14;75.32;96941.78;5071887;28;20140;-58
2022/01/06 07:17:34;;;;;;;6.75;3.80;;;;;;;1.16;75.70;96952.00;5072692;28;20044;-58
2022/01/06 07:20:00;;;;;;;8.18;4.28;;;;;;;1.20;75.72;96945.28;5071321;28;20036;-61
2022/01/06 07:22:26;;;;;;;4.45;3.28;;;;;;;1.32;75.61;96942.59;5070260;28;20049;-59
2022/01/06 07:24:52;;;;;;;6.18;3.75;;;;;;;1.35;76.55;96940.31;5071582;28;20040;-62
2022/01/06 07:27:18;;;;;;;8.35;3.92;;;;;;;1.38;74.84;96943.47;5074368;28;20046;-59
2022/01/06 07:29:44;;;;;;;8.60;4.05;;;;;;;1.33;75.19;96941.59;5092262;28;20044;-62
2022/01/06 07:32:10;;;;;;;10.80;4.18;;;;;;;1.31;75.87;96947.03;5070479;28;20090;-58
2022/01/06 07:34:35;;;;;;;8.70;4.13;;;;;;;1.28;75.46;96944.09;5070951;28;20049;-60
2022/01/06 07:37:02;;;;;;;6.68;4.00;;;;;;;1.24;76.14;96943.78;5071145;28;20047;-61
2022/01/06 07:39:28;;;;;;;8.50;4.63;;;;;;;1.37;76.39;96934.84;5069660;28;20036;-57
2022/01/06 07:41:54;;;;;;;12.75;5.07;;;;;;;1.48;76.08;96930.56;5069564;28;20086;-57
2022/01/06 07:44:21;;;;;;;6.93;3.75;;;;;;;1.57;75.34;96932.53;5052737;28;20048;-57
2022/01/06 07:46:47;;;;;;;6.88;4.28;;;;;;;1.54;74.41;96933.03;5069278;28;20045;-56
2022/01/06 07:49:13;;;;;;;8.23;4.47;;;;;;;1.52;75.06;96935.06;5070525;28;20090;-57
2022/01/06 07:51:39;;;;;;;6.75;4.60;;;;;;;1.56;75.42;96938.00;5070645;28;20098;-58
2022/01/06 07:54:05;;;;;;;9.27;4.63;;;;;;;1.63;74.37;96936.00;5070751;28;20040;-62
2022/01/06 07:56:32;;;;;;;8.65;3.63;;;;;;;1.69;75.15;96929.81;5070658;28;20337;-62
2022/01/06 07:58:58;;;;;;;7.90;4.72;;;;;;;1.80;74.75;96928.94;5079516;28;20043;-56
2022/01/06 08:01:24;;;;;;;11.00;4.90;;;;;;;1.85;74.43;96933.44;5089908;28;20560;-57
2022/01/06 08:03:50;;;;;;;8.05;4.05;;;;;;;1.81;74.70;96927.13;5092233;28;20570;-58
2022/01/06 08:06:16;;;;;;;7.03;4.15;;;;;;;1.93;74.05;96933.03;5070670;28;20040;-58
2022/01/06 08:08:43;;;;;;;9.93;4.97;;;;;;;2.07;73.59;96930.84;5068464;28;20132;-60
2022/01/06 08:11:09;;;;;;;9.18;4.97;;;;;;;2.12;73.26;96930.09;5069241;28;20413;-58
2022/01/06 08:13:36;;;;;;;7.65;4.57;;;;;;;2.07;73.32;96924.84;5071733;28;20040;-58
2022/01/06 08:16:02;;;;;;;5.95;4.53;;;;;;;1.88;73.58;96932.94;5075657;28;20532;-58
2022/01/06 08:18:28;;;;;;;6.30;4.50;;;;;;;1.91;73.59;96932.50;5087082;28;20075;-58
2022/01/06 08:20:53;;;;;;;9.05;4.85;;;;;;;1.93;73.88;96929.63;5065416;28;20131;-57
2022/01/06 08:23:19;;;;;;;12.30;5.63;;;;;;;1.95;74.47;96927.56;5070236;28;20044;-58
2022/01/06 08:25:45;;;;;;;13.52;5.30;;;;;;;1.92;73.42;96925.44;5070372;28;20513;-58
2022/01/06 08:28:11;;;;;;;9.80;5.50;;;;;;;1.97;73.26;96928.09;5068300;28;20050;-57
2022/01/06 08:30:37;;;;;;;9.85;5.63;;;;;;;2.00;73.55;96935.44;5068709;28;20128;-59
2022/01/06 08:33:03;;;;;;;13.18;5.30;;;;;;;1.98;73.48;96924.47;5053262;28;20513;-58
2022/01/06 08:35:30;;;;;;;10.32;5.57;;;;;;;2.04;73.39;96928.72;5069561;28;20068;-60
2022/01/06 08:37:56;;;;;;;11.40;5.47;;;;;;;2.08;73.41;96929.03;5043394;28;20037;-58
2022/01/06 08:40:21;;;;;;;8.80;4.82;;;;;;;2.09;73.61;96920.13;5070392;28;20033;-59
2022/01/06 08:42:48;;;;;;;11.77;5.53;;;;;;;2.17;73.51;96920.50;5070177;28;20056;-58
2022/01/06 08:45:16;;;;;;;10.52;5.15;;;;;;;2.26;72.98;96913.84;5067579;28;20047;-57
2022/01/06 08:47:43;;;;;;;9.80;6.43;;;;;;;2.40;73.14;96919.47;5070500;28;20076;-58
2022/01/06 08:50:09;;;;;;;11.60;5.65;;;;;;;2.45;72.68;96911.69;5067886;28;20129;-59
2022/01/06 08:52:36;;;;;;;8.38;5.00;;;;;;;2.48;72.66;96910.41;5070029;28;20497;-58
2022/01/06 08:55:03;;;;;;;9.75;5.10;;;;;;;2.57;73.49;96908.13;5069709;28;20054;-60
2022/01/06 08:57:29;;;;;;;10.45;5.78;;;;;;;2.58;71.95;96901.88;5070659;28;20049;-58
2022/01/06 08:59:55;;;;;;;8.25;4.90;;;;;;;2.53;72.09;96897.38;5068010;28;20040;-59
2022/01/06 09:02:21;;;;;;;10.23;5.65;;;;;;;2.45;72.44;96905.66;5068117;28;20041;-59
2022/01/06 09:04:47;;;;;;;12.00;5.93;;;;;;;2.52;73.04;96906.25;5074964;28;20413;-59
2022/01/06 09:07:13;;;;;;;11.65;5.93;;;;;;;2.53;72.68;96905.22;5088029;28;20138;-58
2022/01/06 09:09:41;;;;;;;7.95;5.32;;;;;;;2.58;72.09;96899.25;5090491;28;20059;-57
2022/01/06 09:12:16;;;;;;;13.20;6.25;;;;;;;2.56;72.28;96909.16;5069811;28;20110;-57
2022/01/06 09:14:43;;;;;;;11.50;5.70;;;;;;;2.38;72.83;96911.09;5070711;28;20051;-56
2022/01/06 09:17:09;;;;;;;9.48;5.57;;;;;;;2.46;72.72;96910.63;5067060;28;20055;-55
2022/01/06 09:19:35;;;;;;;8.77;5.85;;;;;;;2.48;72.83;96908.56;5073226;28;20036;-55
2022/01/06 09:22:01;;;;;;;11.32;6.18;;;;;;;2.46;73.23;96917.69;5073665;28;20106;-58
2022/01/06 09:24:28;;;;;;;10.15;5.80;;;;;;;2.44;73.49;96907.50;5072378;28;20032;-58
2022/01/06 09:26:54;;;;;;;11.48;5.90;;;;;;;2.50;73.27;96905.72;5074283;28;20052;-55
2022/01/06 09:29:20;;;;;;;10.38;6.10;;;;;;;2.60;73.19;96915.50;5072980;28;20494;-55
2022/01/06 09:31:46;;;;;;;11.35;5.93;;;;;;;2.60;72.75;96910.25;5071803;28;20426;-59
2022/01/06 09:34:12;;;;;;;10.50;5.85;;;;;;;2.69;72.23;96916.63;5072489;28;20075;-58
2022/01/06 09:36:40;;;;;;;13.32;7.32;;;;;;;2.73;71.62;96910.63;5075820;28;20062;-58
2022/01/06 09:39:07;;;;;;;9.88;6.43;;;;;;;2.71;71.81;96912.72;5094135;28;20036;-59
2022/01/06 09:41:34;;;;;;;10.23;5.90;;;;;;;2.59;72.05;96903.44;5038956;28;20409;-58
2022/01/06 09:44:00;;;;;;;11.73;6.50;;;;;;;2.60;72.14;96916.28;5088361;28;20040;-57
2022/01/06 09:46:27;;;;;;;15.23;6.47;;;;;;;2.73;71.87;96915.09;5077903;28;20050;-58
2022/01/06 09:48:59;;;;;;;12.15;7.13;;;;;;;2.80;72.05;96917.53;5070974;28;20119;-58
2022/01/06 09:51:26;;;;;;;9.98;5.78;;;;;;;2.84;71.76;96916.75;5077370;28;20055;-58
2022/01/06 09:53:54;;;;;;;12.35;6.47;;;;;;;2.77;71.44;96916.19;5092198;28;20040;-58
2022/01/06 09:56:20;;;;;;;11.05;5.72;;;;;;;2.67;71.60;96918.69;5073538;28;20041;-60
2022/01/06 09:58:46;;;;;;;14.60;6.22;;;;;;;2.61;71.82;96919.69;5087515;28;20536;-57
2022/01/06 10:01:12;;;;;;;7.55;5.45;;;;;;;2.69;72.57;96914.78;5077832;28;20048;-57
2022/01/06 10:03:41;;;;;;;13.48;6.05;;;;;;;2.71;72.39;96914.56;5072150;28;20044;-62
2022/01/06 10:06:14;;;;;;;11.38;5.90;;;;;;;2.68;72.22;96909.81;5093286;28;20037;-58
2022/01/06 10:08:42;;;;;;;10.90;5.72;;;;;;;2.59;72.63;96908.66;5075710;28;20048;-60
2022/01/06 10:11:10;;;;;;;10.90;5.57;;;;;;;2.60;72.75;96905.03;5073213;28;20285;-57
2022/01/06 10:13:36;;;;;;;8.88;5.53;;;;;;;2.70;73.00;96899.88;5091572;28;20059;-59
2022/01/06 10:16:19;;;;;;;8.43;5.20;;;;;;;2.75;71.38;96899.94;5072174;28;20040;-58
2022/01/06 10:19:05;;;;;;;11.27;5.40;;;;;;;2.75;71.66;96902.56;5072166;28;20414;-61
2022/01/06 10:21:37;;;;;;;8.98;5.70;;;;;;;2.77;71.32;96900.50;5053953;28;20506;-59
2022/01/06 10:24:05;;;;;;;9.23;5.85;;;;;;;2.69;71.13;96899.09;5071372;28;20048;-62
2022/01/06 10:26:31;;;;;;;9.52;5.80;;;;;;;2.51;71.55;96904.69;5054739;28;20131;-60
2022/01/06 10:28:57;;;;;;;9.57;5.53;;;;;;;2.61;72.90;96910.00;5053446;28;20064;-59
2022/01/06 10:31:24;;;;;;;7.65;5.22;;;;;;;2.63;71.39;96902.69;5071837;28;20067;-61
2022/01/06 10:33:50;;;;;;;11.60;6.05;;;;;;;2.44;72.13;96902.25;5053712;28;20044;-59
2022/01/06 10:36:16;;;;;;;7.75;5.47;;;;;;;2.40;72.66;96906.38;5072634;28;20067;-60
2022/01/06 10:38:52;;;;;;;7.70;4.85;;;;;;;2.33;72.73;96908.41;5091459;28;20101;-59
2022/01/06 10:41:18;;;;;;;10.48;5.55;;;;;;;2.38;72.33;96911.09;5089440;28;20040;-60
2022/01/06 10:43:52;;;;;;;11.68;5.70;;;;;;;2.41;72.18;96909.78;5090777;28;20075;-64
2022/01/06 10:46:37;;;;;;;12.80;5.95;;;;;;;2.34;72.82;96909.19;5081748;28;20075;-59
2022/01/06 10:49:12;;;;;;;10.13;5.28;;;;;;;2.33;72.69;96915.47;5069908;28;20040;-60
2022/01/06 10:51:44;;;;;;;9.82;5.68;;;;;;;2.33;72.71;96911.03;5072070;28;20041;-61
2022/01/06 10:54:23;;;;;;;11.90;5.70;;;;;;;2.36;72.77;96913.16;5073073;28;20082;-61
2022/01/06 10:57:07;;;;;;;7.68;4.70;;;;;;;2.35;72.21;96910.78;5091981;28;20052;-61
2022/01/06 10:59:34;;;;;;;7.68;4.85;;;;;;;2.41;72.43;96915.84;5071234;28;20422;-61
2022/01/06 11:02:01;;;;;;;8.82;5.20;;;;;;;2.37;71.96;96906.88;5072087;28;20127;-61
2022/01/06 11:04:28;;;;;;;7.75;5.13;;;;;;;2.45;71.81;96901.22;5080655;28;20040;-60
2022/01/06 11:06:54;;;;;;;11.52;4.78;;;;;;;2.53;71.29;96899.19;5086853;28;20044;-61
2022/01/06 11:09:20;;;;;;;9.82;5.00;;;;;;;2.60;71.21;96903.19;5053871;28;20135;-59
2022/01/06 11:14:26;;;;;;;9.73;5.28;;;;;;;2.52;70.49;96895.00;5090546;28;20047;-58
2022/01/06 11:16:51;;;;;;;8.70;4.93;;;;;;;2.58;71.44;96904.47;5080887;28;20048;-57
2022/01/06 11:19:17;;;;;;;11.90;4.95;;;;;;;2.60;70.94;96891.94;5070053;28;20031;-61
2022/01/06 11:21:48;;;;;;;7.00;5.10;;;;;;;2.66;70.84;96894.38;5069582;28;20441;-60
2022/01/06 11:24:22;;;;;;;;;;;;;;;2.67;70.35;96893.31;5072896;28;20040;-61
2022/01/06 11:27:09;;;;;;;9.60;4.93;;;;;;;2.59;70.29;96892.97;5056255;28;19944;-59
2022/01/06 11:29:40;;;;;;;15.32;5.25;;;;;;;2.61;70.33;96885.69;5070801;28;20048;-60
2022/01/06 11:32:21;;;;;;;8.75;4.85;;;;;;;2.65;69.98;96879.72;5070906;28;20170;-60
2022/01/06 11:34:50;;;;;;;;;;;;;;;2.63;70.24;96881.78;5077358;28;20048;-60
2022/01/06 11:37:16;;;;;;;9.23;4.82;;;;;;;2.48;70.27;96874.56;5086857;28;19930;-61
2022/01/06 11:39:42;;;;;;;8.48;5.20;;;;;;;2.42;69.97;96878.19;5070448;28;20464;-64
2022/01/06 11:42:21;;;;;;;12.38;4.50;;;;;;;2.43;70.48;96884.97;5067895;28;20051;-59
2022/01/06 11:44:50;;;;;;;8.30;4.80;;;;;;;2.45;70.89;96877.69;5073965;28;20140;-60
2022/01/06 11:47:37;;;;;;;9.20;5.10;;;;;;;2.38;70.03;96874.50;5090332;28;20169;-59
2022/01/06 11:50:25;;;;;;;14.63;5.47;;;;;;;2.37;70.76;96875.50;5019728;28;20040;-61